Time;durP1;ratioP1;P1;durP2;ratioP2;P2;SDS_P1;SDS_P2;PMS_P1;PMS_P2;Temp;Humidity;BMP_temperature;BMP_pressure;BME280_temperature;BME280_humidity;BME280_pressure;Samples;Min_cycle;Max_cycle;Signal;HPM_P1;HPM_P2
2021/04/18 00:00:08;;;;;;;7.68;4.60;;;;;;;;;;5095821;28;20410;-65
2021/04/18 00:02:34;;;;;;;8.27;4.95;;;;;;;;;;5096182;28;20028;-65
2021/04/18 00:05:00;;;;;;;8.50;5.35;;;;;;;;;;5096105;28;20032;-65
2021/04/18 00:07:26;;;;;;;6.15;4.32;;;;;;;;;;5095533;28;20034;-66
2021/04/18 00:09:54;;;;;;;7.50;4.20;;;;;;;;;;5095981;28;20488;-65
2021/04/18 00:12:20;;;;;;;8.60;4.85;;;;;;;;;;5096024;28;20020;-65
2021/04/18 00:14:46;;;;;;;9.15;5.65;;;;;;;;;;5094234;28;20433;-65
2021/04/18 00:17:12;;;;;;;8.18;4.68;;;;;;;;;;5096052;28;20020;-65
2021/04/18 00:19:38;;;;;;;9.40;5.57;;;;;;;;;;5095930;28;20054;-65
2021/04/18 00:22:04;;;;;;;10.13;6.18;;;;;;;;;;5095406;28;20169;-65
2021/04/18 00:24:31;;;;;;;8.48;5.05;;;;;;;;;;5095753;28;20035;-66
2021/04/18 00:26:57;;;;;;;9.88;6.07;;;;;;;;;;5095695;28;20073;-66
2021/04/18 00:29:23;;;;;;;10.32;6.40;;;;;;;;;;5095151;28;20063;-66
2021/04/18 00:31:49;;;;;;;10.82;6.80;;;;;;;;;;5095590;28;20021;-66
2021/04/18 00:34:15;;;;;;;9.38;5.50;;;;;;;;;;5095467;28;20070;-66
2021/04/18 00:36:42;;;;;;;9.55;5.97;;;;;;;;;;5094112;28;20027;-65
2021/04/18 00:39:08;;;;;;;13.32;7.15;;;;;;;;;;5095606;28;20059;-65
2021/04/18 00:41:34;;;;;;;13.57;8.32;;;;;;;;;;5095163;28;20023;-65
2021/04/18 00:44:00;;;;;;;17.33;9.82;;;;;;;;;;5095431;28;20420;-65
2021/04/18 00:46:27;;;;;;;12.07;8.00;;;;;;;;;;5094055;28;20384;-65
2021/04/18 00:48:53;;;;;;;11.25;7.90;;;;;;;;;;5093527;28;20060;-65
2021/04/18 00:51:19;;;;;;;12.02;7.90;;;;;;;;;;5093898;28;20473;-66
2021/04/18 00:53:45;;;;;;;13.77;8.73;;;;;;;;;;5095212;28;20388;-66
2021/04/18 00:56:12;;;;;;;14.10;9.18;;;;;;;;;;5094953;28;20020;-66
2021/04/18 00:58:38;;;;;;;12.88;8.02;;;;;;;;;;5093310;28;20077;-65
2021/04/18 01:01:05;;;;;;;9.75;6.60;;;;;;;;;;5095014;28;20024;-66
2021/04/18 01:03:32;;;;;;;11.13;6.15;;;;;;;;;;5094636;28;20024;-66
2021/04/18 01:05:58;;;;;;;10.32;6.05;;;;;;;;;;5094961;28;20533;-66
2021/04/18 01:08:24;;;;;;;10.13;5.68;;;;;;;;;;5094597;28;20063;-66
2021/04/18 01:10:50;;;;;;;9.48;5.20;;;;;;;;;;5094382;28;20035;-65
2021/04/18 01:13:16;;;;;;;9.18;5.35;;;;;;;;;;5094753;28;20020;-66
2021/04/18 01:15:43;;;;;;;6.85;4.35;;;;;;;;;;5094846;28;20048;-65
2021/04/18 01:18:09;;;;;;;9.15;4.88;;;;;;;;;;5094468;28;20022;-65
2021/04/18 01:20:35;;;;;;;9.48;5.43;;;;;;;;;;5094632;28;20020;-65
2021/04/18 01:23:01;;;;;;;10.63;5.97;;;;;;;;;;5094520;28;20134;-65
2021/04/18 01:25:27;;;;;;;8.25;4.85;;;;;;;;;;5094167;28;20028;-66
2021/04/18 01:27:55;;;;;;;8.95;4.53;;;;;;;;;;5094511;28;20099;-66
2021/04/18 01:30:26;;;;;;;7.90;4.18;;;;;;;;;;5093047;28;20396;-66
2021/04/18 01:32:53;;;;;;;8.07;5.18;;;;;;;;;;5093993;28;20073;-66
2021/04/18 01:35:20;;;;;;;9.07;5.03;;;;;;;;;;5094402;28;20122;-66
2021/04/18 01:37:46;;;;;;;9.57;5.43;;;;;;;;;;5094195;28;20472;-66
2021/04/18 01:40:14;;;;;;;7.20;4.47;;;;;;;;;;5094364;28;20023;-65
2021/04/18 01:42:41;;;;;;;8.13;4.60;;;;;;;;;;5092888;28;20473;-66
2021/04/18 01:45:09;;;;;;;7.07;4.05;;;;;;;;;;5093795;28;20499;-66
2021/04/18 01:47:35;;;;;;;6.10;3.50;;;;;;;;;;5094146;28;20020;-65
2021/04/18 01:50:01;;;;;;;4.55;2.60;;;;;;;;;;5093990;28;20396;-66
2021/04/18 01:52:28;;;;;;;7.85;4.63;;;;;;;;;;5093644;28;20020;-66
2021/04/18 01:54:54;;;;;;;6.55;3.53;;;;;;;;;;5093987;28;20107;-65
2021/04/18 01:57:20;;;;;;;7.20;4.05;;;;;;;;;;5094155;28;20031;-65
2021/04/18 01:59:46;;;;;;;6.80;3.75;;;;;;;;;;5093593;28;20476;-65
2021/04/18 02:02:13;;;;;;;7.03;4.03;;;;;;;;;;5093882;28;20024;-66
2021/04/18 02:04:40;;;;;;;6.95;3.58;;;;;;;;;;5092555;28;20093;-66
2021/04/18 02:07:06;;;;;;;6.90;4.38;;;;;;;;;;5093406;28;20020;-66
2021/04/18 02:09:33;;;;;;;8.38;4.65;;;;;;;;;;5092590;28;20162;-66
2021/04/18 02:12:05;;;;;;;6.60;4.05;;;;;;;;;;5093701;28;20488;-65
2021/04/18 02:14:32;;;;;;;8.65;4.93;;;;;;;;;;5093251;28;20020;-66
2021/04/18 02:16:58;;;;;;;6.97;4.30;;;;;;;;;;5093728;28;20020;-66
2021/04/18 02:19:24;;;;;;;7.32;3.25;;;;;;;;;;5092493;28;20028;-65
2021/04/18 02:21:51;;;;;;;6.65;4.05;;;;;;;;;;5091875;28;20016;-65
2021/04/18 02:24:17;;;;;;;6.20;3.38;;;;;;;;;;5092178;28;20439;-65
2021/04/18 02:26:43;;;;;;;6.93;3.95;;;;;;;;;;5093409;28;20051;-66
2021/04/18 02:29:09;;;;;;;7.28;3.85;;;;;;;;;;5092918;28;20062;-65
2021/04/18 02:31:35;;;;;;;7.70;3.83;;;;;;;;;;5093331;28;20024;-66
2021/04/18 02:34:02;;;;;;;5.10;3.35;;;;;;;;;;5092946;28;20073;-66
2021/04/18 02:36:28;;;;;;;5.07;2.70;;;;;;;;;;5093362;28;20024;-65
2021/04/18 02:38:54;;;;;;;6.90;3.83;;;;;;;;;;5093461;28;20028;-65
2021/04/18 02:41:20;;;;;;;4.95;2.90;;;;;;;;;;5091472;28;20062;-65
2021/04/18 02:43:46;;;;;;;5.00;2.60;;;;;;;;;;5093151;28;20031;-66
2021/04/18 02:46:13;;;;;;;6.57;4.18;;;;;;;;;;5093089;28;20023;-65
2021/04/18 02:48:39;;;;;;;5.32;3.50;;;;;;;;;;5092607;28;20047;-65
2021/04/18 02:51:05;;;;;;;6.00;3.42;;;;;;;;;;5091695;28;20490;-66
2021/04/18 02:53:32;;;;;;;6.10;3.63;;;;;;;;;;5092945;28;20024;-66
2021/04/18 02:55:58;;;;;;;5.32;3.08;;;;;;;;;;5092640;28;20028;-65
2021/04/18 02:58:24;;;;;;;4.22;2.85;;;;;;;;;;5091827;28;20031;-66
2021/04/18 03:00:50;;;;;;;4.25;2.92;;;;;;;;;;5092966;28;20024;-65
2021/04/18 03:03:16;;;;;;;5.53;2.88;;;;;;;;;;5091236;28;20032;-65
2021/04/18 03:05:43;;;;;;;4.97;2.70;;;;;;;;;;5091848;28;20420;-66
2021/04/18 03:08:09;;;;;;;5.28;2.72;;;;;;;;;;5091152;28;20101;-66
2021/04/18 03:10:35;;;;;;;4.95;2.75;;;;;;;;;;5091124;28;20054;-66
2021/04/18 03:13:01;;;;;;;3.38;2.42;;;;;;;;;;5092745;28;20095;-65
2021/04/18 03:15:28;;;;;;;3.90;2.50;;;;;;;;;;5092783;28;20059;-65
2021/04/18 03:17:54;;;;;;;4.45;2.33;;;;;;;;;;5091077;28;20551;-65
2021/04/18 03:20:20;;;;;;;4.38;2.65;;;;;;;;;;5092569;28;20031;-65
2021/04/18 03:22:46;;;;;;;4.47;2.63;;;;;;;;;;5092567;28;20473;-63
2021/04/18 03:25:13;;;;;;;4.05;2.50;;;;;;;;;;5092167;28;20077;-63
2021/04/18 03:27:39;;;;;;;4.47;2.50;;;;;;;;;;5092566;28;20028;-65
2021/04/18 03:30:07;;;;;;;4.05;2.70;;;;;;;;;;5092511;28;20054;-64
2021/04/18 03:32:33;;;;;;;3.17;2.05;;;;;;;;;;5092120;28;20019;-64
2021/04/18 03:35:00;;;;;;;3.95;2.78;;;;;;;;;;5092747;28;20118;-64
2021/04/18 03:37:26;;;;;;;5.50;3.05;;;;;;;;;;5092307;28;20380;-64
2021/04/18 03:39:52;;;;;;;5.07;3.05;;;;;;;;;;5092643;28;20024;-64
2021/04/18 03:42:18;;;;;;;4.93;3.20;;;;;;;;;;5091295;28;20044;-64
2021/04/18 03:44:44;;;;;;;5.93;3.15;;;;;;;;;;5091944;28;20035;-64
2021/04/18 03:47:11;;;;;;;5.32;3.08;;;;;;;;;;5092430;28;20021;-64
2021/04/18 03:49:37;;;;;;;5.32;3.38;;;;;;;;;;5092314;28;20040;-64
2021/04/18 03:52:03;;;;;;;4.82;2.92;;;;;;;;;;5090746;28;20016;-64
2021/04/18 03:54:29;;;;;;;4.88;3.08;;;;;;;;;;5092376;28;20066;-64
2021/04/18 03:56:55;;;;;;;5.57;3.10;;;;;;;;;;5092375;28;20020;-64
2021/04/18 03:59:21;;;;;;;3.78;2.47;;;;;;;;;;5092145;28;20495;-64
2021/04/18 04:01:48;;;;;;;5.78;3.42;;;;;;;;;;5092360;28;20112;-64
2021/04/18 04:04:14;;;;;;;6.18;3.33;;;;;;;;;;5092295;28;20017;-64
2021/04/18 04:06:40;;;;;;;8.18;4.72;;;;;;;;;;5091831;28;20021;-64
2021/04/18 04:09:06;;;;;;;6.63;3.95;;;;;;;;;;5091966;28;20076;-64
2021/04/18 04:11:33;;;;;;;4.72;2.92;;;;;;;;;;5092143;28;20020;-64
2021/04/18 04:13:59;;;;;;;8.73;5.22;;;;;;;;;;5091735;28;20028;-64
2021/04/18 04:16:25;;;;;;;7.82;4.05;;;;;;;;;;5092172;28;20376;-65
2021/04/18 04:18:51;;;;;;;8.18;4.40;;;;;;;;;;5092608;28;20024;-65
2021/04/18 04:21:17;;;;;;;5.72;3.63;;;;;;;;;;5091834;28;20044;-64
2021/04/18 04:23:43;;;;;;;6.75;3.95;;;;;;;;;;5090746;28;20016;-65
2021/04/18 04:26:10;;;;;;;6.03;3.58;;;;;;;;;;5092032;28;20050;-65
2021/04/18 04:28:36;;;;;;;6.35;3.15;;;;;;;;;;5090267;28;20068;-65
2021/04/18 04:31:03;;;;;;;6.00;3.50;;;;;;;;;;5090901;28;20028;-65
2021/04/18 04:33:33;;;;;;;5.47;3.25;;;;;;;;;;5094123;28;20042;-65
2021/04/18 04:35:59;;;;;;;4.80;2.78;;;;;;;;;;5095761;28;20472;-64
2021/04/18 04:38:25;;;;;;;5.93;3.47;;;;;;;;;;5095611;28;20024;-65
2021/04/18 04:40:52;;;;;;;13.18;4.53;;;;;;;;;;5095365;28;20020;-65
2021/04/18 04:43:18;;;;;;;7.45;4.20;;;;;;;;;;5094126;28;20016;-65
2021/04/18 04:45:44;;;;;;;6.70;4.07;;;;;;;;;;5095388;28;20028;-65
2021/04/18 04:48:11;;;;;;;7.05;4.00;;;;;;;;;;5094892;28;20051;-64
2021/04/18 04:50:37;;;;;;;6.97;3.58;;;;;;;;;;5095226;28;20036;-64
2021/04/18 04:53:03;;;;;;;6.60;3.80;;;;;;;;;;5095209;28;20043;-65
2021/04/18 04:55:30;;;;;;;5.20;3.13;;;;;;;;;;5094856;28;20117;-65
2021/04/18 04:57:56;;;;;;;6.47;3.50;;;;;;;;;;5095256;28;20468;-65
2021/04/18 05:00:22;;;;;;;8.88;4.40;;;;;;;;;;5095305;28;20085;-65
2021/04/18 05:02:49;;;;;;;6.90;4.50;;;;;;;;;;5094756;28;20040;-64
2021/04/18 05:05:15;;;;;;;7.18;4.10;;;;;;;;;;5095323;28;20070;-64
2021/04/18 05:07:41;;;;;;;15.10;8.07;;;;;;;;;;5094786;28;20040;-65
2021/04/18 05:10:07;;;;;;;16.05;8.88;;;;;;;;;;5094442;28;20125;-65
2021/04/18 05:12:34;;;;;;;19.77;11.02;;;;;;;;;;5094889;28;20020;-65
2021/04/18 05:15:00;;;;;;;15.85;8.30;;;;;;;;;;5094858;28;20036;-64
2021/04/18 05:17:26;;;;;;;10.98;6.07;;;;;;;;;;5094429;28;20028;-64
2021/04/18 05:19:53;;;;;;;9.70;6.03;;;;;;;;;;5094995;28;20032;-64
2021/04/18 05:22:19;;;;;;;11.88;7.22;;;;;;;;;;5094838;28;20073;-64
2021/04/18 05:24:45;;;;;;;8.30;5.07;;;;;;;;;;5094243;28;20027;-64
2021/04/18 05:27:11;;;;;;;8.88;5.50;;;;;;;;;;5093218;28;20074;-65
2021/04/18 05:29:38;;;;;;;9.88;6.15;;;;;;;;;;5093180;28;20032;-65
2021/04/18 05:32:04;;;;;;;9.60;5.15;;;;;;;;;;5094067;28;20107;-65
2021/04/18 05:34:32;;;;;;;10.90;7.18;;;;;;;;;;5094360;28;20078;-64
2021/04/18 05:37:00;;;;;;;11.65;6.05;;;;;;;;;;5094107;28;20035;-64
2021/04/18 05:39:26;;;;;;;9.75;5.70;;;;;;;;;;5094475;28;20012;-66
2021/04/18 05:41:52;;;;;;;17.58;8.63;;;;;;;;;;5094436;28;20043;-64
2021/04/18 05:44:19;;;;;;;19.73;8.88;;;;;;;;;;5093709;28;20024;-64
2021/04/18 05:46:45;;;;;;;18.63;9.80;;;;;;;;;;5094185;28;20027;-64
2021/04/18 05:49:11;;;;;;;13.75;7.78;;;;;;;;;;5093984;28;20051;-64
2021/04/18 05:51:37;;;;;;;21.75;12.77;;;;;;;;;;5093773;28;20085;-64
2021/04/18 05:54:04;;;;;;;21.85;11.27;;;;;;;;;;5094003;28;20020;-64
2021/04/18 05:56:30;;;;;;;14.10;8.68;;;;;;;;;;5093981;28;20048;-64
2021/04/18 05:58:56;;;;;;;16.23;9.82;;;;;;;;;;5093706;28;20020;-64
2021/04/18 06:01:24;;;;;;;16.55;9.68;;;;;;;;;;5092780;28;20492;-64
2021/04/18 06:03:50;;;;;;;16.65;10.13;;;;;;;;;;5093961;28;20065;-64
2021/04/18 06:06:17;;;;;;;13.10;8.45;;;;;;;;;;5093319;28;20028;-64
2021/04/18 06:08:43;;;;;;;12.70;7.90;;;;;;;;;;5093521;28;20044;-64
2021/04/18 06:11:09;;;;;;;12.95;7.47;;;;;;;;;;5092392;28;20036;-65
2021/04/18 06:13:35;;;;;;;12.40;7.75;;;;;;;;;;5093315;28;20027;-64
2021/04/18 06:16:02;;;;;;;11.68;7.45;;;;;;;;;;5093538;28;20035;-65
2021/04/18 06:18:28;;;;;;;13.68;8.85;;;;;;;;;;5092322;28;20440;-64
2021/04/18 06:20:54;;;;;;;10.43;6.45;;;;;;;;;;5093379;28;20095;-64
2021/04/18 06:23:22;;;;;;;15.55;9.55;;;;;;;;;;5093526;28;20514;-64
2021/04/18 06:25:48;;;;;;;13.35;7.68;;;;;;;;;;5093462;28;20063;-64
2021/04/18 06:28:14;;;;;;;12.02;7.40;;;;;;;;;;5091678;28;20031;-65
2021/04/18 06:30:40;;;;;;;14.10;7.85;;;;;;;;;;5093340;28;20032;-64
2021/04/18 06:33:07;;;;;;;12.10;8.02;;;;;;;;;;5093263;28;20020;-65
2021/04/18 06:35:33;;;;;;;26.17;15.15;;;;;;;;;;5093722;28;20032;-64
2021/04/18 06:37:59;;;;;;;30.50;19.23;;;;;;;;;;5093289;28;20503;-65
2021/04/18 06:40:25;;;;;;;22.95;14.82;;;;;;;;;;5092839;28;20112;-65
2021/04/18 06:42:54;;;;;;;28.20;16.35;;;;;;;;;;5093125;28;20020;-65
2021/04/18 06:45:20;;;;;;;23.15;15.00;;;;;;;;;;5093091;28;20032;-65
2021/04/18 06:47:47;;;;;;;27.77;17.48;;;;;;;;;;5091413;28;20020;-65
2021/04/18 06:50:13;;;;;;;25.50;15.63;;;;;;;;;;5092978;28;20032;-65
2021/04/18 06:52:40;;;;;;;25.80;17.92;;;;;;;;;;5092937;28;20094;-65
2021/04/18 06:55:07;;;;;;;22.58;15.43;;;;;;;;;;5090796;28;20111;-65
2021/04/18 06:57:33;;;;;;;25.65;15.68;;;;;;;;;;5093815;28;20095;-65
2021/04/18 07:00:00;;;;;;;23.83;14.70;;;;;;;;;;5092930;28;20065;-65
2021/04/18 07:02:27;;;;;;;17.70;11.68;;;;;;;;;;5092513;28;20020;-65
2021/04/18 07:05:00;;;;;;;16.80;12.55;;;;;;;;;;5091584;28;20027;-65
2021/04/18 07:07:27;;;;;;;17.03;12.40;;;;;;;;;;5092698;28;20051;-65
2021/04/18 07:09:54;;;;;;;21.00;12.80;;;;;;;;;;5091153;28;20044;-65
2021/04/18 07:12:27;;;;;;;19.35;12.88;;;;;;;;;;5092673;28;20039;-65
2021/04/18 07:14:54;;;;;;;23.13;15.52;;;;;;;;;;5091182;28;20020;-65
2021/04/18 07:17:20;;;;;;;16.45;11.68;;;;;;;;;;5091180;28;20081;-65
2021/04/18 07:19:49;;;;;;;21.90;13.73;;;;;;;;;;5093008;28;20035;-65
2021/04/18 07:22:19;;;;;;;17.48;12.00;;;;;;;;;;5092670;28;20021;-65
2021/04/18 07:24:52;;;;;;;13.70;10.15;;;;;;;;;;5093067;28;20028;-65
2021/04/18 07:27:18;;;;;;;13.75;8.60;;;;;;;;;;5091284;28;20028;-65
2021/04/18 07:29:53;;;;;;;23.23;15.18;;;;;;;;;;5092234;28;20136;-65
2021/04/18 07:32:20;;;;;;;18.88;12.85;;;;;;;;;;5092664;28;20024;-65
2021/04/18 07:34:47;;;;;;;23.45;14.88;;;;;;;;;;5092661;28;20050;-65
2021/04/18 07:37:17;;;;;;;20.25;13.68;;;;;;;;;;5092374;28;20031;-65
2021/04/18 07:39:45;;;;;;;25.48;17.58;;;;;;;;;;5092480;28;20361;-65
2021/04/18 07:42:29;;;;;;;32.22;22.83;;;;;;;;;;5092497;28;20028;-65
2021/04/18 07:44:57;;;;;;;26.73;18.23;;;;;;;;;;5092196;28;20026;-65
2021/04/18 07:47:23;;;;;;;30.30;21.58;;;;;;;;;;5092468;28;20387;-65
2021/04/18 07:49:50;;;;;;;25.55;18.02;;;;;;;;;;5092197;28;20028;-65
2021/04/18 07:52:17;;;;;;;22.52;15.13;;;;;;;;;;5091969;28;20547;-65
2021/04/18 07:54:43;;;;;;;22.02;14.88;;;;;;;;;;5091454;28;20025;-65
2021/04/18 07:57:10;;;;;;;24.30;16.60;;;;;;;;;;5092751;28;20024;-65
2021/04/18 07:59:37;;;;;;;32.08;20.17;;;;;;;;;;5091951;28;20059;-65
2021/04/18 08:02:04;;;;;;;30.20;19.40;;;;;;;;;;5090915;28;20042;-65
2021/04/18 08:04:31;;;;;;;30.30;21.00;;;;;;;;;;5092230;28;20020;-65
2021/04/18 08:06:57;;;;;;;38.08;25.98;;;;;;;;;;5090510;28;20016;-65
2021/04/18 08:09:24;;;;;;;30.27;20.83;;;;;;;;;;5095692;28;20500;-65
2021/04/18 08:12:06;;;;;;;32.83;21.67;;;;;;;;;;5095344;28;20027;-65
2021/04/18 08:14:32;;;;;;;30.67;22.77;;;;;;;;;;5095904;28;20093;-65
2021/04/18 08:17:12;;;;;;;44.05;26.90;;;;;;;;;;5095946;28;20028;-65
2021/04/18 08:19:38;;;;;;;46.90;33.90;;;;;;;;;;5095916;28;20357;-65
2021/04/18 08:22:05;;;;;;;31.98;21.90;;;;;;;;;;5095944;28;20457;-65
2021/04/18 08:24:33;;;;;;;25.08;17.98;;;;;;;;;;5095781;28;20028;-64
2021/04/18 08:27:11;;;;;;;29.50;19.95;;;;;;;;;;5095411;28;20035;-67
2021/04/18 08:29:56;;;;;;;25.13;17.23;;;;;;;;;;5095769;28;20032;-65
2021/04/18 08:32:39;;;;;;;21.83;15.45;;;;;;;;;;5095626;28;20487;-65
2021/04/18 08:35:13;;;;;;;24.13;14.65;;;;;;;;;;5094239;28;20533;-64
2021/04/18 08:37:39;;;;;;;26.67;17.95;;;;;;;;;;5094283;28;20039;-65
2021/04/18 08:40:06;;;;;;;25.05;14.52;;;;;;;;;;5095145;28;20020;-65
2021/04/18 08:42:33;;;;;;;40.95;25.90;;;;;;;;;;5095481;28;20024;-65
2021/04/18 08:45:00;;;;;;;35.38;23.35;;;;;;;;;;5095443;28;20488;-65
2021/04/18 08:47:28;;;;;;;30.35;19.77;;;;;;;;;;5095200;28;20032;-65
2021/04/18 08:49:57;;;;;;;27.85;16.98;;;;;;;;;;5095323;28;20115;-65
2021/04/18 08:52:23;;;;;;;24.83;16.38;;;;;;;;;;5093945;28;20384;-65
2021/04/18 08:54:50;;;;;;;25.90;16.55;;;;;;;;;;5093757;28;20400;-65
2021/04/18 08:57:18;;;;;;;27.52;15.32;;;;;;;;;;5095317;28;20023;-65
2021/04/18 08:59:49;;;;;;;26.70;17.05;;;;;;;;;;5095115;28;20032;-65
2021/04/18 09:02:15;;;;;;;25.20;16.20;;;;;;;;;;5094663;28;20066;-65
2021/04/18 09:04:42;;;;;;;27.10;17.17;;;;;;;;;;5095088;28;20073;-65
2021/04/18 09:07:09;;;;;;;26.48;17.85;;;;;;;;;;5093666;28;20359;-65
2021/04/18 09:09:36;;;;;;;32.75;17.70;;;;;;;;;;5094310;28;20051;-66
2021/04/18 09:12:02;;;;;;;22.80;15.90;;;;;;;;;;5093730;28;20020;-66
2021/04/18 09:14:36;;;;;;;23.75;15.93;;;;;;;;;;5095124;28;20062;-65
2021/04/18 09:17:09;;;;;;;22.58;15.30;;;;;;;;;;5094518;28;20031;-66
2021/04/18 09:19:36;;;;;;;23.88;14.52;;;;;;;;;;5094363;28;20536;-65
2021/04/18 09:22:08;;;;;;;27.88;18.67;;;;;;;;;;5093010;28;20024;-65
2021/04/18 09:24:54;;;;;;;25.38;14.50;;;;;;;;;;5094738;28;20024;-65
2021/04/18 09:27:26;;;;;;;21.02;16.42;;;;;;;;;;5094486;28;20024;-65
2021/04/18 09:29:55;;;;;;;21.25;12.55;;;;;;;;;;5094132;28;20039;-65
2021/04/18 09:32:23;;;;;;;19.95;13.35;;;;;;;;;;5094489;28;20081;-65
2021/04/18 09:34:49;;;;;;;21.77;15.85;;;;;;;;;;5094941;28;20024;-65
2021/04/18 09:37:17;;;;;;;23.08;14.30;;;;;;;;;;5094072;28;20020;-65
2021/04/18 09:39:43;;;;;;;38.53;22.45;;;;;;;;;;5094313;28;20028;-65
2021/04/18 09:42:10;;;;;;;35.35;19.73;;;;;;;;;;5094243;28;20043;-65
2021/04/18 09:44:45;;;;;;;34.63;20.48;;;;;;;;;;5093867;28;20016;-65
2021/04/18 09:47:22;;;;;;;24.58;16.55;;;;;;;;;;5092928;28;20024;-65
2021/04/18 09:49:50;;;;;;;28.10;19.17;;;;;;;;;;5094085;28;20411;-65
2021/04/18 09:52:23;;;;;;;20.95;13.98;;;;;;;;;;5093651;28;20491;-66
2021/04/18 09:54:49;;;;;;;21.27;13.07;;;;;;;;;;5094135;28;20476;-65
2021/04/18 09:57:18;;;;;;;16.80;10.93;;;;;;;;;;5093618;28;20017;-65
2021/04/18 09:59:44;;;;;;;22.27;14.55;;;;;;;;;;5093948;28;20024;-65
2021/04/18 10:02:14;;;;;;;24.70;13.32;;;;;;;;;;5092642;28;20025;-66
2021/04/18 10:04:41;;;;;;;25.65;16.15;;;;;;;;;;5092530;28;20078;-66
2021/04/18 10:07:07;;;;;;;30.38;18.55;;;;;;;;;;5094482;28;20028;-66
2021/04/18 10:09:52;;;;;;;21.58;15.27;;;;;;;;;;5093513;28;20052;-66
2021/04/18 10:12:18;;;;;;;27.20;17.48;;;;;;;;;;5093508;28;20028;-65
2021/04/18 10:14:45;;;;;;;22.25;14.48;;;;;;;;;;5093878;28;20375;-65
2021/04/18 10:17:11;;;;;;;24.83;14.80;;;;;;;;;;5093565;28;20510;-65
2021/04/18 10:19:52;;;;;;;19.65;11.48;;;;;;;;;;5093773;28;20095;-65
2021/04/18 10:22:19;;;;;;;21.98;13.75;;;;;;;;;;5093283;28;20052;-66
2021/04/18 10:24:48;;;;;;;31.92;18.05;;;;;;;;;;5093451;28;20094;-66
2021/04/18 10:27:15;;;;;;;33.30;19.17;;;;;;;;;;5093041;28;20107;-66
2021/04/18 10:29:42;;;;;;;35.47;20.42;;;;;;;;;;5092900;28;20024;-66
2021/04/18 10:32:09;;;;;;;28.95;15.60;;;;;;;;;;5093151;28;20028;-66
2021/04/18 10:34:35;;;;;;;23.65;14.05;;;;;;;;;;5093200;28;20027;-66
2021/04/18 10:37:03;;;;;;;33.47;18.48;;;;;;;;;;5091908;28;20369;-66
2021/04/18 10:39:29;;;;;;;26.38;17.20;;;;;;;;;;5092877;28;20024;-65
2021/04/18 10:41:55;;;;;;;21.77;14.57;;;;;;;;;;5093152;28;20020;-65
2021/04/18 10:44:22;;;;;;;27.48;16.83;;;;;;;;;;5093209;28;20016;-65
2021/04/18 10:46:52;;;;;;;24.90;18.17;;;;;;;;;;5092715;28;20020;-65
2021/04/18 10:49:18;;;;;;;22.95;16.52;;;;;;;;;;5091721;28;20399;-65
2021/04/18 10:51:45;;;;;;;24.63;16.00;;;;;;;;;;5093106;28;20024;-65
2021/04/18 10:54:11;;;;;;;19.80;12.90;;;;;;;;;;5092795;28;20020;-65
2021/04/18 10:56:37;;;;;;;29.30;18.40;;;;;;;;;;5091777;28;20493;-65
2021/04/18 10:59:04;;;;;;;40.33;33.40;;;;;;;;;;5092913;28;20026;-65
2021/04/18 11:01:30;;;;;;;25.40;18.27;;;;;;;;;;5092595;28;20027;-65
2021/04/18 11:03:56;;;;;;;23.77;16.13;;;;;;;;;;5091636;28;20487;-64
2021/04/18 11:06:23;;;;;;;26.65;19.33;;;;;;;;;;5092819;28;20074;-64
2021/04/18 11:08:49;;;;;;;30.35;22.10;;;;;;;;;;5092201;28;20515;-64
2021/04/18 11:11:16;;;;;;;38.60;25.90;;;;;;;;;;5092820;28;20430;-64
2021/04/18 11:13:42;;;;;;;24.23;15.77;;;;;;;;;;5093013;28;20020;-65
2021/04/18 11:16:08;;;;;;;26.10;17.73;;;;;;;;;;5091180;28;20099;-65
2021/04/18 11:18:34;;;;;;;35.78;22.70;;;;;;;;;;5092841;28;20550;-65
2021/04/18 11:21:01;;;;;;;32.13;20.42;;;;;;;;;;5092693;28;20021;-66
2021/04/18 11:23:28;;;;;;;25.92;16.65;;;;;;;;;;5092217;28;20016;-66
2021/04/18 11:25:54;;;;;;;31.08;19.40;;;;;;;;;;5092866;28;20052;-65
2021/04/18 11:28:20;;;;;;;22.00;14.48;;;;;;;;;;5091501;28;20024;-66
2021/04/18 11:30:46;;;;;;;21.52;14.80;;;;;;;;;;5092382;28;20036;-65
2021/04/18 11:33:12;;;;;;;21.58;12.30;;;;;;;;;;5092588;28;20012;-64
2021/04/18 11:35:39;;;;;;;22.95;14.35;;;;;;;;;;5092260;28;20085;-65
2021/04/18 11:39:29;;;;;;;21.88;13.90;;;;;;;;;;5110473;27;20388;-66
2021/04/18 11:41:55;;;;;;;18.17;10.55;;;;;;;;;;5110308;28;20020;-67
2021/04/18 11:44:22;;;;;;;14.35;7.80;;;;;;;;;;5109930;28;20024;-66
2021/04/18 11:46:48;;;;;;;24.30;13.15;;;;;;;;;;5109053;28;20031;-65
2021/04/18 11:49:15;;;;;;;19.23;11.50;;;;;;;;;;5109024;28;20028;-66
2021/04/18 11:51:42;;;;;;;23.17;12.95;;;;;;;;;;5108543;28;20496;-66
2021/04/18 11:54:09;;;;;;;19.70;11.30;;;;;;;;;;5110326;28;20028;-65
2021/04/18 11:56:36;;;;;;;17.17;9.90;;;;;;;;;;5109086;28;20054;-65
2021/04/18 11:59:02;;;;;;;19.20;10.57;;;;;;;;;;5109647;28;20091;-64
2021/04/18 12:01:28;;;;;;;12.80;8.18;;;;;;;;;;5108798;28;20023;-65
2021/04/18 12:03:55;;;;;;;17.38;9.63;;;;;;;;;;5109565;28;20028;-65
2021/04/18 12:06:21;;;;;;;15.93;9.63;;;;;;;;;;5108718;28;20024;-64
2021/04/18 12:08:47;;;;;;;19.92;10.27;;;;;;;;;;5108463;28;20024;-64
2021/04/18 12:11:33;;;;;;;21.67;11.30;;;;;;;;;;5110062;27;20458;-66
2021/04/18 12:14:00;;;;;;;21.27;11.57;;;;;;;;;;5110597;28;20023;-63
2021/04/18 12:17:46;;;;;;;14.02;8.25;;;;;;;;;;5109993;27;20765;-64
2021/04/18 12:20:13;;;;;;;12.73;7.50;;;;;;;;;;5109106;28;20027;-65
2021/04/18 12:23:08;;;;;;;14.02;7.82;;;;;;;;;;5110456;27;20438;-64
2021/04/18 12:25:34;;;;;;;16.40;8.43;;;;;;;;;;5108658;28;20212;-64
2021/04/18 12:28:00;;;;;;;13.93;7.85;;;;;;;;;;5109060;28;20090;-67
2021/04/18 12:30:27;;;;;;;14.88;8.32;;;;;;;;;;5110888;28;20022;-65
2021/04/18 12:32:53;;;;;;;18.08;11.07;;;;;;;;;;5110057;28;20024;-64
2021/04/18 12:36:10;;;;;;;21.33;12.95;;;;;;;;;;5110339;27;20377;-64
2021/04/18 12:39:45;;;;;;;18.70;11.05;;;;;;;;;;5110300;27;20961;-64
2021/04/18 12:46:36;;;;;;;12.25;7.50;;;;;;;;;;5110210;27;20407;-65
2021/04/18 12:49:02;;;;;;;14.43;8.70;;;;;;;;;;5110597;28;20020;-65
2021/04/18 12:51:28;;;;;;;13.88;8.73;;;;;;;;;;5109185;28;20383;-65
2021/04/18 12:53:55;;;;;;;14.60;8.48;;;;;;;;;;5109964;28;20012;-64
2021/04/18 12:56:22;;;;;;;15.20;10.90;;;;;;;;;;5110290;28;20114;-64
2021/04/18 12:58:48;;;;;;;11.80;6.88;;;;;;;;;;5110516;28;20020;-65
2021/04/18 13:01:14;;;;;;;13.38;7.63;;;;;;;;;;5108553;28;20433;-65
2021/04/18 13:03:40;;;;;;;13.15;8.02;;;;;;;;;;5110003;28;20023;-65
2021/04/18 13:06:06;;;;;;;14.45;7.57;;;;;;;;;;5110015;28;20074;-65
2021/04/18 13:08:32;;;;;;;17.50;9.70;;;;;;;;;;5109600;28;20086;-65
2021/04/18 13:10:59;;;;;;;11.75;6.93;;;;;;;;;;5110239;28;20031;-65
2021/04/18 13:13:25;;;;;;;11.82;7.43;;;;;;;;;;5109929;28;20023;-64
2021/04/18 13:15:51;;;;;;;14.00;7.03;;;;;;;;;;5108324;28;20402;-65
2021/04/18 13:18:17;;;;;;;14.27;7.80;;;;;;;;;;5109911;28;20031;-65
2021/04/18 13:20:44;;;;;;;20.27;12.50;;;;;;;;;;5109858;28;20042;-65
2021/04/18 13:23:10;;;;;;;18.80;10.73;;;;;;;;;;5109464;28;20027;-65
2021/04/18 13:25:36;;;;;;;13.77;8.90;;;;;;;;;;5109669;28;20028;-65
2021/04/18 13:28:03;;;;;;;13.73;8.50;;;;;;;;;;5109599;28;20051;-65
2021/04/18 13:30:29;;;;;;;14.45;9.20;;;;;;;;;;5109438;28;20088;-65
2021/04/18 13:32:55;;;;;;;13.15;7.82;;;;;;;;;;5109694;28;20024;-65
2021/04/18 13:35:22;;;;;;;10.40;6.63;;;;;;;;;;5109114;28;20081;-65
2021/04/18 13:37:48;;;;;;;13.27;8.45;;;;;;;;;;5109465;28;20380;-65
2021/04/18 13:40:15;;;;;;;15.82;9.05;;;;;;;;;;5109435;28;20024;-65
2021/04/18 13:42:42;;;;;;;15.32;10.40;;;;;;;;;;5108792;28;20046;-65
2021/04/18 13:45:09;;;;;;;17.02;10.13;;;;;;;;;;5107854;28;20044;-65
2021/04/18 13:47:35;;;;;;;12.13;7.43;;;;;;;;;;5109191;28;20024;-65
2021/04/18 13:50:01;;;;;;;16.00;9.43;;;;;;;;;;5109079;28;20042;-65
2021/04/18 13:52:27;;;;;;;18.65;10.10;;;;;;;;;;5109280;28;20016;-65
2021/04/18 13:54:54;;;;;;;16.83;10.70;;;;;;;;;;5109148;28;20031;-65
2021/04/18 13:57:20;;;;;;;17.35;10.18;;;;;;;;;;5097188;28;20487;-65
2021/04/18 13:59:46;;;;;;;20.45;12.63;;;;;;;;;;5095452;28;20028;-65
2021/04/18 14:02:13;;;;;;;21.52;12.55;;;;;;;;;;5094159;28;20472;-65
2021/04/18 14:04:39;;;;;;;18.90;10.93;;;;;;;;;;5095089;28;20028;-65
2021/04/18 14:07:06;;;;;;;17.25;10.57;;;;;;;;;;5095361;28;20101;-65
2021/04/18 14:09:32;;;;;;;15.90;9.70;;;;;;;;;;5095422;28;20100;-65
2021/04/18 14:11:58;;;;;;;13.93;8.48;;;;;;;;;;5094956;28;20062;-65
2021/04/18 14:14:24;;;;;;;16.88;9.25;;;;;;;;;;5095362;28;20515;-65
2021/04/18 14:18:35;;;;;;;20.00;12.32;;;;;;;;;;5109941;27;20716;-64
2021/04/18 14:21:02;;;;;;;14.98;8.02;;;;;;;;;;5110445;28;20430;-64
2021/04/18 14:23:28;;;;;;;14.60;7.13;;;;;;;;;;5109099;28;20047;-64
2021/04/18 14:25:55;;;;;;;13.63;7.45;;;;;;;;;;5110060;28;20024;-64
2021/04/18 14:28:22;;;;;;;13.70;8.13;;;;;;;;;;5110260;28;20028;-64
2021/04/18 14:30:48;;;;;;;14.38;7.70;;;;;;;;;;5110515;28;20024;-64
2021/04/18 14:33:15;;;;;;;14.52;7.30;;;;;;;;;;5109752;28;20020;-64
2021/04/18 14:35:41;;;;;;;15.43;7.78;;;;;;;;;;5110331;28;20024;-64
2021/04/18 14:38:08;;;;;;;12.25;7.32;;;;;;;;;;5110198;28;20059;-64